Terminal Aerodrome Forecast
Issued by NWS Cleveland, OH

Home | Current Version | Previous Version | Graphics & Text | Print | Product List | Glossary On
Versions: 1 2 3 4 5 6 7 8 9 10 11 12 13 14 15 16 17 18
000
FTUS41 KCLE 241700
TAFYNG
TAF
KYNG 241720Z 2418/2518 23008KT P6SM BKN250
     FM250200 16006KT P6SM SCT120 BKN250
     FM250900 20010KT P6SM SCT120 BKN250
     FM251500 22012G20KT P6SM SCT050 BKN120=

USA.gov is the U.S. government's official web portal to all federal, state and local government web resources and services.